Time;durP1;ratioP1;P1;durP2;ratioP2;P2;SDS_P1;SDS_P2;PMS_P1;PMS_P2;Temp;Humidity;BMP_temperature;BMP_pressure;BME280_temperature;BME280_humidity;BME280_pressure;Samples;Min_cycle;Max_cycle;Signal;HPM_P1;HPM_P2
2021/01/29 00:00:15;;;;;;;34.90;23.67;;;1.80;99.90;;;;;;5113878;28;20557;-78
2021/01/29 00:02:40;;;;;;;52.67;37.85;;;1.80;99.90;;;;;;5112688;28;20393;-78
2021/01/29 00:05:08;;;;;;;37.60;26.93;;;1.80;99.90;;;;;;5111751;28;20184;-78
2021/01/29 00:07:33;;;;;;;32.13;23.80;;;1.80;99.90;;;;;;5112234;28;20184;-78
2021/01/29 00:09:59;;;;;;;60.43;38.90;;;1.90;99.90;;;;;;5112960;28;20515;-78
2021/01/29 00:12:25;;;;;;;65.43;46.83;;;1.90;99.90;;;;;;5111690;28;20913;-78
2021/01/29 00:14:52;;;;;;;33.47;26.00;;;1.90;99.90;;;;;;5115256;28;20655;-78
2021/01/29 00:17:17;;;;;;;44.40;33.78;;;2.00;99.90;;;;;;5111756;28;20175;-79
2021/01/29 00:19:44;;;;;;;38.63;28.53;;;1.90;99.90;;;;;;5111982;28;20179;-78
2021/01/29 00:22:10;;;;;;;34.25;25.50;;;2.00;99.90;;;;;;5114421;28;20890;-77
2021/01/29 00:24:36;;;;;;;37.95;30.83;;;1.90;99.90;;;;;;5113728;27;20636;-78
2021/01/29 00:27:03;;;;;;;36.13;27.33;;;2.00;99.90;;;;;;5114335;28;20203;-78
2021/01/29 00:29:29;;;;;;;37.20;29.67;;;2.00;99.90;;;;;;5114779;28;20222;-78
2021/01/29 00:31:54;;;;;;;37.47;29.90;;;2.00;99.90;;;;;;5113860;28;20976;-79
2021/01/29 00:34:20;;;;;;;28.87;21.30;;;2.00;99.90;;;;;;5112996;28;20248;-78
2021/01/29 00:36:45;;;;;;;39.23;28.80;;;2.00;99.90;;;;;;5112816;28;20635;-78
2021/01/29 00:39:11;;;;;;;31.67;25.10;;;2.10;99.90;;;;;;5112998;28;20264;-78
2021/01/29 00:41:37;;;;;;;36.30;28.10;;;2.00;99.90;;;;;;5112556;28;20187;-79
2021/01/29 00:44:03;;;;;;;37.20;25.63;;;2.00;99.90;;;;;;5114205;28;20187;-78
2021/01/29 00:46:29;;;;;;;32.45;26.65;;;2.00;99.90;;;;;;5114234;28;20205;-78
2021/01/29 00:48:54;;;;;;;29.63;22.97;;;2.00;99.90;;;;;;5112774;28;20725;-78
2021/01/29 00:51:20;;;;;;;33.03;25.20;;;2.00;99.90;;;;;;5113979;28;20185;-77
2021/01/29 00:53:46;;;;;;;33.33;27.57;;;2.10;99.90;;;;;;5114856;28;20192;-78
2021/01/29 00:56:12;;;;;;;29.40;21.47;;;2.10;99.90;;;;;;5113614;28;20172;-78
2021/01/29 00:58:38;;;;;;;33.72;23.27;;;2.10;99.90;;;;;;5113632;28;20276;-79
2021/01/29 01:01:05;;;;;;;33.07;23.63;;;2.20;99.90;;;;;;5111788;28;20214;-79
2021/01/29 01:03:31;;;;;;;32.40;22.80;;;2.30;99.90;;;;;;5112615;28;20203;-79
2021/01/29 01:05:57;;;;;;;34.77;26.93;;;2.30;99.90;;;;;;5108811;28;20211;-79
2021/01/29 01:08:23;;;;;;;37.10;28.73;;;2.50;99.90;;;;;;5109734;28;20399;-78
2021/01/29 01:10:49;;;;;;;33.10;25.60;;;2.60;99.90;;;;;;5112305;28;20170;-78
2021/01/29 01:13:16;;;;;;;31.65;25.02;;;2.40;99.90;;;;;;5112523;28;20692;-79
2021/01/29 01:15:41;;;;;;;37.13;31.77;;;2.30;99.90;;;;;;5111837;28;20172;-79
2021/01/29 01:18:08;;;;;;;37.27;28.70;;;2.30;99.90;;;;;;5111213;28;20289;-78
2021/01/29 01:20:34;;;;;;;37.83;27.33;;;2.40;99.90;;;;;;5110552;28;20795;-78
2021/01/29 01:23:00;;;;;;;41.88;33.15;;;2.40;99.90;;;;;;5110548;28;20195;-79
2021/01/29 01:25:26;;;;;;;36.57;26.60;;;2.50;99.90;;;;;;5110507;28;20218;-78
2021/01/29 01:27:52;;;;;;;39.07;29.40;;;2.40;99.90;;;;;;5110441;28;20208;-79
2021/01/29 01:30:29;;;;;;;43.22;30.55;;;2.50;99.90;;;;;;5110365;28;20954;-79
2021/01/29 01:32:55;;;;;;;43.10;31.73;;;2.40;99.90;;;;;;5109686;28;20248;-78
2021/01/29 01:35:21;;;;;;;58.63;42.15;;;2.50;99.90;;;;;;5108571;28;20221;-79
2021/01/29 01:37:48;;;;;;;40.45;29.45;;;2.50;99.90;;;;;;5107061;28;20208;-78
2021/01/29 01:40:14;;;;;;;39.00;26.25;;;2.60;99.90;;;;;;5109942;28;20180;-79
2021/01/29 01:42:40;;;;;;;36.83;26.50;;;2.60;99.90;;;;;;5110098;28;20663;-79
2021/01/29 01:46:05;;;;;;;38.80;29.47;;;2.60;99.90;;;;;;5109923;28;20176;-79
2021/01/29 01:48:49;;;;;;;37.50;26.30;;;2.70;99.90;;;;;;5066352;28;20491;-79
2021/01/29 01:51:29;;;;;;;39.42;27.77;;;2.60;99.90;;;;;;5067170;28;20177;-79
2021/01/29 01:53:58;;;;;;;34.67;25.63;;;2.60;99.90;;;;;;5101504;28;20675;-79
2021/01/29 01:56:38;;;;;;;30.20;23.38;;;2.70;99.90;;;;;;5107750;28;20284;-78
2021/01/29 01:59:08;;;;;;;32.42;25.13;;;2.60;99.90;;;;;;5109986;28;20183;-79
2021/01/29 02:01:35;;;;;;;31.80;22.58;;;2.60;99.90;;;;;;5108929;28;20190;-79
2021/01/29 02:04:01;;;;;;;34.08;25.35;;;2.70;99.90;;;;;;5107547;28;20567;-79
2021/01/29 02:06:29;;;;;;;30.42;22.92;;;2.80;99.90;;;;;;5108574;28;20195;-79
2021/01/29 02:09:01;;;;;;;34.95;23.98;;;2.90;99.90;;;;;;5108143;28;20176;-79
2021/01/29 02:11:27;;;;;;;28.67;22.23;;;3.00;99.90;;;;;;5106530;28;20172;-79
2021/01/29 02:13:52;;;;;;;30.90;22.47;;;2.90;99.90;;;;;;5109931;28;20501;-79
2021/01/29 02:16:25;;;;;;;29.97;22.43;;;2.90;99.90;;;;;;5109194;28;20172;-79
2021/01/29 02:19:12;;;;;;;30.48;21.73;;;3.00;99.90;;;;;;5107610;28;20186;-79
2021/01/29 02:21:49;;;;;;;30.17;22.35;;;3.10;99.90;;;;;;5108513;28;20172;-79
2021/01/29 02:24:36;;;;;;;33.00;23.85;;;3.10;99.90;;;;;;5108844;28;20179;-79
2021/01/29 02:27:21;;;;;;;30.20;22.95;;;3.10;99.90;;;;;;5107066;28;20218;-79
2021/01/29 02:30:14;;;;;;;30.25;21.70;;;3.20;99.90;;;;;;5109090;28;20179;-79
2021/01/29 02:33:17;;;;;;;28.98;22.45;;;3.10;99.90;;;;;;5108848;28;20244;-79
2021/01/29 02:36:04;;;;;;;30.58;23.00;;;3.20;99.90;;;;;;5108915;28;20670;-79
2021/01/29 02:38:38;;;;;;;32.55;23.35;;;3.20;99.90;;;;;;5108845;28;20184;-79
2021/01/29 02:41:40;;;;;;;29.85;22.85;;;3.20;99.90;;;;;;5109569;28;20183;-79
2021/01/29 02:44:06;;;;;;;30.77;22.50;;;3.20;99.90;;;;;;5108751;28;20183;-79
2021/01/29 02:46:46;;;;;;;28.93;22.07;;;3.20;99.90;;;;;;5108691;28;20684;-79
2021/01/29 02:49:37;;;;;;;34.63;23.73;;;3.20;99.90;;;;;;5109580;28;20225;-79
2021/01/29 02:52:24;;;;;;;30.35;21.25;;;3.20;99.90;;;;;;5109263;28;20168;-79
2021/01/29 02:55:11;;;;;;;31.88;22.80;;;3.20;99.90;;;;;;5108402;28;20176;-79
2021/01/29 02:58:14;;;;;;;29.90;23.48;;;3.30;99.90;;;;;;5106840;28;20580;-79
2021/01/29 03:00:47;;;;;;;31.25;22.60;;;3.30;99.90;;;;;;5108312;28;20640;-79
2021/01/29 03:03:13;;;;;;;30.98;22.70;;;3.20;99.90;;;;;;5109102;28;20179;-79
2021/01/29 03:05:54;;;;;;;32.90;23.20;;;3.30;99.90;;;;;;5108558;28;20635;-79
2021/01/29 03:08:42;;;;;;;30.67;21.67;;;3.30;99.90;;;;;;5108219;28;20172;-79
2021/01/29 03:11:28;;;;;;;30.77;24.15;;;3.30;99.90;;;;;;5107849;28;20199;-79
2021/01/29 03:14:03;;;;;;;33.50;24.15;;;3.40;99.90;;;;;;5107531;28;20179;-79
2021/01/29 03:16:35;;;;;;;36.60;27.88;;;3.40;99.90;;;;;;5106766;28;20171;-79
2021/01/29 03:19:18;;;;;;;37.63;26.88;;;3.40;99.90;;;;;;5108723;28;20176;-79
2021/01/29 03:21:50;;;;;;;27.58;23.48;;;3.40;99.90;;;;;;5108555;28;20665;-79
2021/01/29 03:24:34;;;;;;;26.85;21.13;;;3.40;99.90;;;;;;5107480;28;20215;-79
2021/01/29 03:27:08;;;;;;;27.73;21.50;;;3.50;99.90;;;;;;5107234;28;20701;-79
2021/01/29 03:29:40;;;;;;;28.13;20.63;;;3.50;99.90;;;;;;5108528;28;20659;-79
2021/01/29 03:32:09;;;;;;;27.35;21.05;;;3.60;99.90;;;;;;5105882;28;20188;-79
2021/01/29 03:34:56;;;;;;;27.23;21.10;;;3.60;99.90;;;;;;5107839;28;20168;-79
2021/01/29 03:37:44;;;;;;;28.23;20.60;;;3.70;99.90;;;;;;5107550;28;20171;-79
2021/01/29 03:40:11;;;;;;;24.52;20.30;;;3.70;99.90;;;;;;5107532;28;20197;-79
2021/01/29 03:42:36;;;;;;;23.23;18.92;;;3.70;99.90;;;;;;5106740;28;20195;-79
2021/01/29 03:45:13;;;;;;;27.30;20.93;;;3.70;99.90;;;;;;5108056;28;20180;-79
2021/01/29 03:48:05;;;;;;;23.50;18.77;;;3.70;99.90;;;;;;5106871;28;20186;-79
2021/01/29 03:50:33;;;;;;;25.08;18.20;;;3.80;99.90;;;;;;5107173;28;20176;-79
2021/01/29 03:53:37;;;;;;;21.65;16.98;;;3.90;99.90;;;;;;5107398;28;20176;-79
2021/01/29 03:56:18;;;;;;;21.25;17.63;;;3.90;99.90;;;;;;5064078;28;20293;-79
2021/01/29 03:59:05;;;;;;;26.13;18.08;;;4.00;99.90;;;;;;5047681;28;20192;-79
2021/01/29 04:01:40;;;;;;;25.65;18.30;;;4.10;99.90;;;;;;5094177;28;20219;-80
2021/01/29 04:04:11;;;;;;;23.38;17.80;;;4.10;99.90;;;;;;5105187;28;20645;-79
2021/01/29 04:06:54;;;;;;;24.13;15.20;;;4.20;99.90;;;;;;5107228;28;20648;-79
2021/01/29 04:09:41;;;;;;;17.90;14.80;;;4.30;99.90;;;;;;5107422;28;20207;-79
2021/01/29 04:12:06;;;;;;;19.08;14.85;;;4.40;99.90;;;;;;5106660;28;20209;-79
2021/01/29 04:14:45;;;;;;;19.63;15.33;;;4.40;99.90;;;;;;5104986;28;20206;-79
2021/01/29 04:17:21;;;;;;;22.45;17.35;;;4.50;99.90;;;;;;5105565;28;20382;-79
2021/01/29 04:19:48;;;;;;;23.30;17.50;;;4.50;99.90;;;;;;5106955;28;20250;-79
2021/01/29 04:22:29;;;;;;;24.55;18.38;;;4.60;99.90;;;;;;5105750;28;20342;-79
2021/01/29 04:25:07;;;;;;;19.77;16.42;;;4.60;99.90;;;;;;5109648;28;20171;-79
2021/01/29 04:27:37;;;;;;;20.55;15.25;;;4.60;99.90;;;;;;5110274;28;20194;-79
2021/01/29 04:30:18;;;;;;;15.10;13.00;;;4.60;99.90;;;;;;5111343;28;20180;-79
2021/01/29 04:32:48;;;;;;;16.92;13.77;;;4.70;99.90;;;;;;5111101;28;20229;-79
2021/01/29 04:35:17;;;;;;;19.70;13.45;;;4.70;99.90;;;;;;5110763;28;20598;-79
2021/01/29 04:37:52;;;;;;;17.27;14.75;;;4.70;99.90;;;;;;5108848;28;20180;-79
2021/01/29 04:40:31;;;;;;;17.50;15.15;;;4.70;99.90;;;;;;5110694;28;20167;-79
2021/01/29 04:43:15;;;;;;;16.48;13.07;;;4.70;99.90;;;;;;5111181;28;20210;-79
2021/01/29 04:46:16;;;;;;;17.02;13.20;;;4.80;99.90;;;;;;5110933;28;20199;-79
2021/01/29 04:49:01;;;;;;;15.15;12.98;;;4.90;99.90;;;;;;5110099;28;20183;-79
2021/01/29 04:51:48;;;;;;;14.88;12.43;;;5.00;99.90;;;;;;5108700;28;20183;-79
2021/01/29 04:54:14;;;;;;;15.25;12.38;;;5.00;99.90;;;;;;5108686;28;20180;-79
2021/01/29 04:57:03;;;;;;;18.20;13.70;;;5.00;99.90;;;;;;5108405;28;20223;-79
2021/01/29 04:59:48;;;;;;;17.60;13.80;;;5.00;99.90;;;;;;5110500;28;20261;-79
2021/01/29 05:02:39;;;;;;;18.35;13.02;;;5.10;99.90;;;;;;5112699;28;20152;-79
2021/01/29 05:05:32;;;;;;;13.55;12.07;;;5.30;99.90;;;;;;5110989;28;20704;-79
2021/01/29 05:08:22;;;;;;;17.40;12.70;;;5.20;99.90;;;;;;5109720;28;20191;-79
2021/01/29 05:11:42;;;;;;;16.15;14.43;;;5.20;99.90;;;;;;5112703;28;20239;-79
2021/01/29 05:14:46;;;;;;;15.38;12.60;;;5.40;99.90;;;;;;5114591;28;20179;-79
2021/01/29 05:17:30;;;;;;;15.27;12.10;;;5.40;99.90;;;;;;5112354;28;20210;-80
2021/01/29 05:20:15;;;;;;;14.38;12.25;;;5.40;99.90;;;;;;5111072;28;20975;-79
2021/01/29 05:22:55;;;;;;;15.30;11.30;;;5.40;99.90;;;;;;5112244;28;20194;-79
2021/01/29 05:25:46;;;;;;;14.70;13.20;;;5.40;99.90;;;;;;5112591;28;20179;-79
2021/01/29 05:28:24;;;;;;;17.13;12.80;;;5.50;99.90;;;;;;5113792;28;20640;-79
2021/01/29 05:31:06;;;;;;;21.17;16.42;;;5.50;99.90;;;;;;5111468;28;20171;-79
2021/01/29 05:33:59;;;;;;;16.15;12.60;;;5.40;99.90;;;;;;5110336;28;20180;-79
2021/01/29 05:36:35;;;;;;;13.90;11.77;;;5.60;99.90;;;;;;5112707;28;20319;-79
2021/01/29 05:39:16;;;;;;;13.80;12.13;;;5.80;99.90;;;;;;5110384;28;20233;-79
2021/01/29 05:42:06;;;;;;;15.25;12.40;;;5.80;99.90;;;;;;5111725;28;20846;-80
2021/01/29 05:44:52;;;;;;;12.25;10.95;;;5.70;99.90;;;;;;5111471;28;20550;-80
2021/01/29 05:47:55;;;;;;;12.93;11.13;;;5.90;99.90;;;;;;5111782;28;20651;-79
2021/01/29 05:50:39;;;;;;;14.50;11.00;;;6.60;99.90;;;;;;5112669;28;20272;-80
2021/01/29 05:53:22;;;;;;;15.95;11.15;;;6.70;99.90;;;;;;5111580;28;20176;-79
2021/01/29 05:56:02;;;;;;;15.55;10.93;;;7.10;99.90;;;;;;5112115;28;20662;-79
2021/01/29 05:59:05;;;;;;;14.20;11.90;;;7.10;99.90;;;;;;5107008;28;20643;-79
2021/01/29 06:01:46;;;;;;;12.30;11.10;;;7.10;99.90;;;;;;5110244;28;20175;-78
2021/01/29 06:04:30;;;;;;;15.15;10.85;;;7.20;99.90;;;;;;5109998;28;20180;-78
2021/01/29 06:07:33;;;;;;;13.73;12.32;;;6.40;99.90;;;;;;5109396;28;20704;-79
2021/01/29 06:10:27;;;;;;;14.43;11.00;;;6.20;99.90;;;;;;5110269;28;20168;-79
2021/01/29 06:12:55;;;;;;;13.30;10.82;;;6.00;99.90;;;;;;5110395;28;20172;-79
2021/01/29 06:15:52;;;;;;;13.75;11.38;;;6.00;99.90;;;;;;5109378;28;20648;-79
2021/01/29 06:18:39;;;;;;;17.73;12.57;;;6.00;99.90;;;;;;5109520;28;20640;-79
2021/01/29 06:21:31;;;;;;;15.45;12.80;;;5.90;99.90;;;;;;5109917;28;20172;-79
2021/01/29 06:24:02;;;;;;;14.70;12.50;;;5.90;99.90;;;;;;5109564;28;20656;-79
2021/01/29 06:26:50;;;;;;;14.55;11.70;;;5.80;99.90;;;;;;5108066;28;20760;-79
2021/01/29 06:29:29;;;;;;;14.20;12.13;;;5.80;99.90;;;;;;5109302;28;20194;-79
2021/01/29 06:32:00;;;;;;;20.25;16.08;;;5.80;99.90;;;;;;5108129;28;20179;-79
2021/01/29 06:34:47;;;;;;;17.17;13.43;;;5.80;99.90;;;;;;5106000;28;20194;-80
2021/01/29 06:37:26;;;;;;;15.15;13.25;;;5.90;99.90;;;;;;5107958;28;20523;-79
2021/01/29 06:40:13;;;;;;;15.88;13.35;;;5.90;99.90;;;;;;5108435;28;20207;-79
2021/01/29 06:42:55;;;;;;;14.48;11.95;;;5.90;99.90;;;;;;5108126;28;20628;-80
2021/01/29 06:45:36;;;;;;;15.50;13.48;;;5.90;99.90;;;;;;5107846;28;20160;-80
2021/01/29 06:48:09;;;;;;;16.65;14.68;;;6.00;99.90;;;;;;5106087;28;20187;-79
2021/01/29 06:51:22;;;;;;;15.68;13.13;;;6.00;99.90;;;;;;5110689;28;20176;-79
2021/01/29 06:53:51;;;;;;;15.73;13.38;;;6.10;99.90;;;;;;5069895;28;20212;-79
2021/01/29 06:56:44;;;;;;;26.48;20.52;;;6.10;99.90;;;;;;5106053;28;20715;-79
2021/01/29 06:59:09;;;;;;;18.15;14.90;;;6.20;99.90;;;;;;5086509;28;20570;-79
2021/01/29 07:02:05;;;;;;;16.20;13.40;;;6.20;99.90;;;;;;5085223;28;20486;-79
2021/01/29 07:04:56;;;;;;;20.30;16.58;;;6.20;99.90;;;;;;5088431;28;20169;-80
2021/01/29 07:07:43;;;;;;;17.20;15.30;;;6.30;99.90;;;;;;5089012;28;20289;-79
2021/01/29 07:10:33;;;;;;;18.90;15.25;;;6.30;99.90;;;;;;5087571;28;20603;-79
2021/01/29 07:13:17;;;;;;;19.50;15.98;;;6.40;99.90;;;;;;5117278;27;20179;-79
2021/01/29 07:16:00;;;;;;;32.30;23.48;;;6.30;99.90;;;;;;5121147;27;20742;-79
2021/01/29 07:18:47;;;;;;;21.35;16.60;;;6.40;99.90;;;;;;5106837;27;20191;-80
2021/01/29 07:21:23;;;;;;;21.30;17.83;;;6.40;99.90;;;;;;5099116;28;20180;-79
2021/01/29 07:24:23;;;;;;;21.55;17.88;;;6.40;99.90;;;;;;5105456;27;20676;-79
2021/01/29 07:27:07;;;;;;;24.48;19.38;;;6.40;99.90;;;;;;5105599;28;20561;-79
2021/01/29 07:29:57;;;;;;;33.35;24.17;;;6.40;99.90;;;;;;5090660;28;20199;-79
2021/01/29 07:32:44;;;;;;;27.60;22.73;;;6.50;99.90;;;;;;5106119;28;20246;-79
2021/01/29 07:35:36;;;;;;;50.05;35.42;;;6.70;99.90;;;;;;5106047;28;20176;-78
2021/01/29 07:38:13;;;;;;;35.45;29.77;;;6.60;99.90;;;;;;5100444;28;20181;-79
2021/01/29 07:40:56;;;;;;;21.38;18.20;;;6.70;99.90;;;;;;5103296;28;20228;-80
2021/01/29 07:43:49;;;;;;;22.60;20.23;;;6.70;99.90;;;;;;5100342;28;20702;-79
2021/01/29 07:46:26;;;;;;;19.65;15.88;;;6.70;99.90;;;;;;5099897;28;20231;-80
2021/01/29 07:48:56;;;;;;;18.13;15.48;;;6.70;99.90;;;;;;5110324;28;20190;-79
2021/01/29 07:51:56;;;;;;;22.80;18.45;;;6.70;99.90;;;;;;5097028;28;20210;-80
2021/01/29 07:54:55;;;;;;;17.85;14.75;;;6.70;99.90;;;;;;5100233;28;20177;-80
2021/01/29 07:57:36;;;;;;;22.25;17.90;;;6.70;99.90;;;;;;5105665;28;20235;-80
2021/01/29 08:00:20;;;;;;;24.10;21.60;;;6.80;99.90;;;;;;5102413;28;20718;-80
2021/01/29 08:03:23;;;;;;;20.55;18.45;;;6.70;99.90;;;;;;5109878;28;20196;-80
2021/01/29 08:06:06;;;;;;;16.30;14.57;;;6.90;99.90;;;;;;5107801;28;20215;-80
2021/01/29 08:08:37;;;;;;;16.50;14.27;;;7.00;99.90;;;;;;5110799;27;20577;-80
2021/01/29 08:11:06;;;;;;;14.85;13.25;;;7.00;99.90;;;;;;5107613;28;20691;-80
2021/01/29 08:13:32;;;;;;;16.52;13.02;;;7.00;99.90;;;;;;5103009;27;20662;-80
2021/01/29 08:16:01;;;;;;;13.70;12.30;;;7.00;99.90;;;;;;5108554;28;20187;-80
2021/01/29 08:18:41;;;;;;;17.85;14.25;;;7.10;99.90;;;;;;5103567;28;20192;-80
2021/01/29 08:21:15;;;;;;;16.42;14.02;;;7.10;99.90;;;;;;5098885;28;20236;-80
2021/01/29 08:24:06;;;;;;;13.63;11.88;;;7.10;99.90;;;;;;5102875;28;20195;-80
2021/01/29 08:27:10;;;;;;;11.45;10.25;;;7.20;99.90;;;;;;5103836;28;20266;-80
2021/01/29 08:29:50;;;;;;;13.13;11.82;;;7.20;99.90;;;;;;5095869;28;20247;-79
2021/01/29 08:32:31;;;;;;;15.38;13.95;;;7.20;99.90;;;;;;5106281;28;20190;-80
2021/01/29 08:35:06;;;;;;;14.00;11.60;;;7.10;99.90;;;;;;5114629;28;20191;-80
2021/01/29 08:38:00;;;;;;;15.20;11.98;;;7.30;99.90;;;;;;5113808;28;20621;-79
2021/01/29 08:40:37;;;;;;;13.82;12.20;;;7.20;99.90;;;;;;5097771;28;20545;-80
2021/01/29 08:43:21;;;;;;;15.82;13.73;;;7.20;99.90;;;;;;5110307;28;20196;-80
2021/01/29 08:46:09;;;;;;;14.48;12.90;;;7.20;99.90;;;;;;5097475;28;20693;-79
2021/01/29 08:48:44;;;;;;;14.55;12.35;;;7.20;99.90;;;;;;5102564;28;20664;-79
2021/01/29 08:51:32;;;;;;;18.45;13.25;;;7.30;99.90;;;;;;5101570;28;20221;-79
2021/01/29 08:54:17;;;;;;;15.68;11.55;;;7.40;99.90;;;;;;5108759;28;20191;-79
2021/01/29 08:57:07;;;;;;;13.85;11.80;;;7.40;99.90;;;;;;5103814;28;20250;-79
2021/01/29 08:59:36;;;;;;;13.80;12.30;;;7.30;99.90;;;;;;5101051;27;20196;-79
2021/01/29 09:02:29;;;;;;;11.90;10.52;;;7.30;99.90;;;;;;5108645;28;20228;-79
2021/01/29 09:05:03;;;;;;;18.45;14.05;;;7.40;99.90;;;;;;5108329;27;20183;-79
2021/01/29 09:07:31;;;;;;;15.18;13.38;;;7.40;99.90;;;;;;5116417;27;20574;-79
2021/01/29 09:10:18;;;;;;;15.82;13.35;;;7.40;99.90;;;;;;5106735;27;20187;-79
2021/01/29 09:12:44;;;;;;;17.67;13.35;;;7.40;99.90;;;;;;5114925;27;20194;-79
2021/01/29 09:15:48;;;;;;;17.42;13.65;;;7.40;99.90;;;;;;5104389;27;20233;-79
2021/01/29 09:18:49;;;;;;;15.38;12.98;;;7.40;99.90;;;;;;5093602;27;20235;-79
2021/01/29 09:21:18;;;;;;;14.15;10.55;;;7.40;99.90;;;;;;5097462;27;20214;-80
2021/01/29 09:24:17;;;;;;;13.25;11.85;;;7.40;99.90;;;;;;5102268;28;20195;-79
2021/01/29 09:27:04;;;;;;;15.55;12.05;;;7.40;99.90;;;;;;5101868;28;20489;-79
2021/01/29 09:29:34;;;;;;;15.55;12.52;;;7.50;99.90;;;;;;5086852;28;20353;-80
2021/01/29 09:32:07;;;;;;;27.65;21.10;;;7.50;99.90;;;;;;5104740;28;20184;-79
2021/01/29 09:34:48;;;;;;;18.55;14.05;;;7.60;99.90;;;;;;5097363;27;20183;-79
2021/01/29 09:37:20;;;;;;;13.75;11.10;;;7.60;99.90;;;;;;5097644;28;20184;-80
2021/01/29 09:39:57;;;;;;;12.50;10.82;;;7.60;99.90;;;;;;5104249;28;20183;-79
2021/01/29 09:42:48;;;;;;;14.20;12.45;;;7.60;99.90;;;;;;5085887;28;20290;-79
2021/01/29 09:45:23;;;;;;;29.65;18.77;;;7.70;99.90;;;;;;5089069;28;20206;-79
2021/01/29 09:48:00;;;;;;;26.83;19.15;;;7.70;99.90;;;;;;5091604;28;20274;-79
2021/01/29 09:50:28;;;;;;;18.60;14.85;;;7.60;99.90;;;;;;5100003;28;20191;-78
2021/01/29 09:53:14;;;;;;;16.02;12.50;;;7.70;99.90;;;;;;5105002;28;20240;-78
2021/01/29 09:56:15;;;;;;;12.80;11.50;;;7.70;99.90;;;;;;5099418;28;20630;-79
2021/01/29 09:59:07;;;;;;;22.10;19.73;;;7.60;99.90;;;;;;5062632;28;20994;-78
2021/01/29 10:01:40;;;;;;;14.15;12.20;;;7.60;99.90;;;;;;5093957;28;20188;-78
2021/01/29 10:04:10;;;;;;;47.20;32.95;;;7.60;99.90;;;;;;5097369;28;20229;-78
2021/01/29 10:06:58;;;;;;;30.35;25.00;;;7.70;99.90;;;;;;5093768;28;20204;-78
2021/01/29 10:09:29;;;;;;;39.13;29.80;;;7.60;99.90;;;;;;5097616;28;20583;-79
2021/01/29 10:12:00;;;;;;;85.78;63.90;;;7.70;99.90;;;;;;5097725;27;20180;-79
2021/01/29 10:14:41;;;;;;;23.25;20.88;;;7.80;99.90;;;;;;5097457;28;20645;-78
2021/01/29 10:17:35;;;;;;;17.13;14.55;;;7.80;99.90;;;;;;5107408;28;20187;-78
2021/01/29 10:20:07;;;;;;;17.20;14.25;;;8.00;99.90;;;;;;5094340;28;20220;-78
2021/01/29 10:22:49;;;;;;;26.58;21.70;;;8.00;99.90;;;;;;5090846;28;20196;-79
2021/01/29 10:25:17;;;;;;;41.50;32.03;;;8.00;99.90;;;;;;5093684;28;20262;-79
2021/01/29 10:27:54;;;;;;;39.03;29.13;;;8.10;99.90;;;;;;5091416;28;20267;-80
2021/01/29 10:30:37;;;;;;;24.02;20.70;;;8.20;99.90;;;;;;5098390;28;20201;-79
2021/01/29 10:33:20;;;;;;;37.65;29.25;;;8.20;99.90;;;;;;5091312;28;20625;-79
2021/01/29 10:36:02;;;;;;;49.53;39.25;;;8.20;99.90;;;;;;5098134;28;20194;-79
2021/01/29 10:38:32;;;;;;;14.98;13.30;;;8.20;99.90;;;;;;5089713;28;20199;-79
2021/01/29 10:41:03;;;;;;;36.58;30.27;;;8.30;99.90;;;;;;5099992;28;20187;-80
2021/01/29 10:43:42;;;;;;;37.15;32.35;;;8.20;99.90;;;;;;5107436;28;20187;-79
2021/01/29 10:46:08;;;;;;;23.80;19.58;;;8.30;99.90;;;;;;5095879;28;20222;-79
2021/01/29 10:48:54;;;;;;;28.43;25.20;;;8.30;99.90;;;;;;5095212;28;20222;-79
2021/01/29 10:51:47;;;;;;;55.17;44.90;;;8.40;99.90;;;;;;5099930;28;20268;-79
2021/01/29 10:54:14;;;;;;;21.10;17.35;;;8.40;99.90;;;;;;5101657;28;20198;-79
2021/01/29 10:56:40;;;;;;;42.17;35.40;;;8.40;99.90;;;;;;5101485;28;20342;-79
2021/01/29 10:59:18;;;;;;;54.07;49.10;;;8.40;99.90;;;;;;5098675;28;20279;-79
2021/01/29 11:01:58;;;;;;;16.25;13.73;;;8.40;99.90;;;;;;5098327;28;20421;-78
2021/01/29 11:04:28;;;;;;;18.00;16.10;;;8.50;99.90;;;;;;5098692;28;20187;-79
2021/01/29 11:06:56;;;;;;;14.38;12.02;;;8.50;99.90;;;;;;5097248;27;20321;-79
2021/01/29 11:09:33;;;;;;;19.48;14.50;;;8.50;99.90;;;;;;5095205;28;20180;-79
2021/01/29 11:12:17;;;;;;;18.23;14.57;;;8.60;99.90;;;;;;5095894;28;20780;-79
2021/01/29 11:15:07;;;;;;;14.82;12.45;;;8.60;99.90;;;;;;5087757;28;20176;-79
2021/01/29 11:17:56;;;;;;;16.95;15.27;;;8.60;99.90;;;;;;5086053;28;20199;-79
2021/01/29 11:20:28;;;;;;;18.85;15.05;;;8.60;99.90;;;;;;5079112;28;20234;-79
2021/01/29 11:23:20;;;;;;;54.67;37.58;;;8.50;99.90;;;;;;5089246;28;20586;-80
2021/01/29 11:26:10;;;;;;;18.23;12.93;;;8.60;99.90;;;;;;5090528;28;20287;-79
2021/01/29 11:29:03;;;;;;;46.58;32.25;;;8.70;99.90;;;;;;5085819;28;20283;-79
2021/01/29 11:31:38;;;;;;;33.63;23.42;;;8.80;99.90;;;;;;5085901;28;20259;-80
2021/01/29 11:34:10;;;;;;;18.48;15.05;;;8.80;99.90;;;;;;5096604;28;20266;-80
2021/01/29 11:36:43;;;;;;;80.35;59.08;;;8.80;99.90;;;;;;5087081;28;20251;-80
2021/01/29 11:39:14;;;;;;;39.25;33.28;;;8.80;99.90;;;;;;5099609;28;20623;-81
2021/01/29 11:41:45;;;;;;;30.75;23.40;;;8.80;99.90;;;;;;5086542;28;20173;-78
2021/01/29 11:44:13;;;;;;;27.45;24.38;;;8.80;99.90;;;;;;5099991;28;20220;-78
2021/01/29 11:47:03;;;;;;;21.75;19.23;;;8.80;99.90;;;;;;5087466;28;20711;-78
2021/01/29 11:49:47;;;;;;;19.30;13.95;;;8.80;99.90;;;;;;5097592;28;20188;-78
2021/01/29 11:52:21;;;;;;;19.83;15.45;;;8.80;99.90;;;;;;5100788;28;20242;-78
2021/01/29 11:55:05;;;;;;;45.70;33.35;;;8.80;99.90;;;;;;5107142;28;20183;-78
2021/01/29 11:57:53;;;;;;;47.08;41.08;;;8.80;99.90;;;;;;5091539;28;20256;-81
2021/01/29 12:00:24;;;;;;;25.58;22.98;;;8.90;99.90;;;;;;5095378;28;20187;-79
2021/01/29 12:03:15;;;;;;;22.77;20.38;;;8.90;99.90;;;;;;5093058;28;20188;-78
2021/01/29 12:05:50;;;;;;;52.38;47.05;;;9.00;99.90;;;;;;5095423;28;20207;-79
2021/01/29 12:08:32;;;;;;;21.08;19.08;;;8.90;99.90;;;;;;5085609;28;20660;-79
2021/01/29 12:11:12;;;;;;;21.67;19.73;;;8.90;99.90;;;;;;5103144;28;20180;-79
2021/01/29 12:13:44;;;;;;;37.25;33.85;;;8.90;99.90;;;;;;5106701;28;20225;-80
2021/01/29 12:16:17;;;;;;;23.48;21.38;;;8.90;99.90;;;;;;5101674;28;20176;-79
2021/01/29 12:18:48;;;;;;;17.42;13.10;;;8.90;99.90;;;;;;5093614;28;20619;-78
2021/01/29 12:21:48;;;;;;;27.08;24.20;;;8.90;99.90;;;;;;5096024;28;20644;-79
2021/01/29 12:24:40;;;;;;;17.63;12.68;;;8.90;99.90;;;;;;5094600;28;20196;-79
2021/01/29 12:27:14;;;;;;;33.92;30.65;;;8.90;99.90;;;;;;5099724;28;20679;-79
2021/01/29 12:30:01;;;;;;;15.75;12.23;;;8.90;99.90;;;;;;5087410;28;20303;-78
2021/01/29 12:32:47;;;;;;;15.70;13.50;;;8.90;99.90;;;;;;5094571;28;20187;-79
2021/01/29 12:35:35;;;;;;;10.35;9.35;;;8.80;99.90;;;;;;5084719;28;20520;-78
2021/01/29 12:38:37;;;;;;;11.65;9.65;;;8.80;99.90;;;;;;5082721;28;20185;-80
2021/01/29 12:41:40;;;;;;;19.27;17.48;;;8.70;99.90;;;;;;5089154;28;20514;-79
2021/01/29 12:44:34;;;;;;;13.98;12.65;;;8.60;99.90;;;;;;5099196;28;20533;-79
2021/01/29 12:47:05;;;;;;;17.17;15.35;;;8.60;99.90;;;;;;5090050;28;20196;-79
2021/01/29 12:49:51;;;;;;;20.75;18.48;;;8.60;99.90;;;;;;5093397;28;20184;-79
2021/01/29 12:52:23;;;;;;;19.45;17.35;;;8.40;99.90;;;;;;5090046;28;20168;-79
2021/01/29 12:54:57;;;;;;;21.23;18.98;;;8.40;99.90;;;;;;5095095;28;20231;-79
2021/01/29 12:57:26;;;;;;;23.92;16.95;;;8.20;99.90;;;;;;5090929;28;20254;-80
2021/01/29 13:00:05;;;;;;;21.90;19.60;;;8.20;99.90;;;;;;5099647;28;20822;-80
2021/01/29 13:02:55;;;;;;;21.52;19.33;;;8.20;99.90;;;;;;5098324;28;20244;-79
2021/01/29 13:05:39;;;;;;;20.85;18.75;;;8.20;99.90;;;;;;5090794;28;20662;-78
2021/01/29 13:08:42;;;;;;;23.85;20.48;;;8.20;99.90;;;;;;5105709;28;20579;-78
2021/01/29 13:11:25;;;;;;;22.67;20.27;;;8.20;99.90;;;;;;5103773;28;20167;-78
2021/01/29 13:14:23;;;;;;;25.20;22.48;;;8.20;99.90;;;;;;5105524;28;20192;-80
2021/01/29 13:17:13;;;;;;;19.30;16.55;;;8.20;99.90;;;;;;5090004;28;20230;-79
2021/01/29 13:19:40;;;;;;;25.90;20.58;;;8.10;99.90;;;;;;5088812;28;20192;-78
2021/01/29 13:22:40;;;;;;;42.63;34.30;;;8.20;99.90;;;;;;5099183;28;20221;-77
2021/01/29 13:25:09;;;;;;;45.22;32.70;;;8.10;99.90;;;;;;5085516;28;20736;-78
2021/01/29 13:28:04;;;;;;;40.25;29.63;;;8.20;99.90;;;;;;5097446;28;20218;-78
2021/01/29 13:30:39;;;;;;;54.28;37.13;;;8.10;99.90;;;;;;5096010;28;20275;-79
2021/01/29 13:33:12;;;;;;;44.25;28.92;;;8.10;99.90;;;;;;5108611;28;20188;-79
2021/01/29 13:35:40;;;;;;;27.25;24.30;;;8.10;99.90;;;;;;5102081;28;20180;-80
2021/01/29 13:38:31;;;;;;;35.53;27.48;;;7.90;99.90;;;;;;5100805;28;20186;-77